createdAt,value
2022-11-09T00:01:03.732Z,1.20
2022-11-09T00:03:30.820Z,1.60
2022-11-09T00:05:59.800Z,1.15
2022-11-09T00:08:27.230Z,1.70
2022-11-09T00:10:54.239Z,1.95
2022-11-09T00:13:22.092Z,1.13
2022-11-09T00:15:49.506Z,1.00
2022-11-09T00:18:16.435Z,1.02
2022-11-09T00:20:47.599Z,1.20
2022-11-09T00:23:16.620Z,0.82
2022-11-09T00:25:43.903Z,1.42
2022-11-09T00:28:10.989Z,1.45
2022-11-09T00:30:37.866Z,1.27
2022-11-09T00:33:04.883Z,1.33
2022-11-09T00:35:31.898Z,1.40
2022-11-09T00:37:59.120Z,1.17
2022-11-09T00:40:26.207Z,0.65
2022-11-09T00:42:53.184Z,1.75
2022-11-09T00:45:20.343Z,1.02
2022-11-09T00:47:47.255Z,1.20
2022-11-09T00:50:14.573Z,1.08
2022-11-09T00:52:41.545Z,0.80
2022-11-09T00:55:08.945Z,1.20
2022-11-09T00:57:36.021Z,1.67
2022-11-09T01:00:04.115Z,1.42
2022-11-09T01:02:31.084Z,1.40
2022-11-09T01:04:58.401Z,1.42
2022-11-09T01:07:26.221Z,1.27
2022-11-09T01:09:53.165Z,1.10
2022-11-09T01:12:20.145Z,0.98
2022-11-09T01:14:47.146Z,1.15
2022-11-09T01:17:14.230Z,1.20
2022-11-09T01:19:41.256Z,0.88
2022-11-09T01:22:08.147Z,1.13
2022-11-09T01:24:35.227Z,1.00
2022-11-09T01:27:02.205Z,1.95
2022-11-09T01:29:29.144Z,1.70
2022-11-09T01:31:56.173Z,1.98
2022-11-09T01:34:23.793Z,2.00
2022-11-09T01:36:51.896Z,2.08
2022-11-09T01:39:19.867Z,1.45
2022-11-09T01:41:47.748Z,1.77
2022-11-09T01:44:21.336Z,1.70
2022-11-09T01:47:00.099Z,1.13
2022-11-09T01:49:40.834Z,1.20
2022-11-09T01:52:16.838Z,1.05
2022-11-09T01:54:50.431Z,1.10
2022-11-09T01:57:31.755Z,1.03
2022-11-09T02:00:14.498Z,0.90
2022-11-09T02:02:52.007Z,1.73
2022-11-09T02:05:25.441Z,1.10
2022-11-09T02:07:55.822Z,1.20
2022-11-09T02:10:34.080Z,1.05
2022-11-09T02:13:02.371Z,1.13
2022-11-09T02:15:35.900Z,1.17
2022-11-09T02:18:04.171Z,0.80
2022-11-09T02:20:47.583Z,1.38
2022-11-09T02:23:14.905Z,0.63
2022-11-09T02:25:47.470Z,1.40
2022-11-09T02:28:16.520Z,1.10
2022-11-09T02:30:49.368Z,1.08
2022-11-09T02:33:16.961Z,1.45
2022-11-09T02:35:44.676Z,1.42
2022-11-09T02:38:14.149Z,1.15
2022-11-09T02:40:47.205Z,1.10
2022-11-09T02:43:17.263Z,1.70
2022-11-09T02:45:45.395Z,1.38
2022-11-09T02:48:12.413Z,1.00
2022-11-09T02:50:39.433Z,1.10
2022-11-09T02:53:06.426Z,1.10
2022-11-09T02:55:36.681Z,1.23
2022-11-09T02:58:03.601Z,1.10
2022-11-09T03:00:30.569Z,1.35
2022-11-09T03:02:58.087Z,1.80
2022-11-09T03:05:25.595Z,1.45
2022-11-09T03:07:52.468Z,0.98
2022-11-09T03:10:19.442Z,2.38
2022-11-09T03:12:46.945Z,1.88
2022-11-09T03:15:15.224Z,1.00
2022-11-09T03:17:45.465Z,2.60
2022-11-09T03:20:13.397Z,1.10
2022-11-09T03:22:41.595Z,1.25
2022-11-09T03:25:09.540Z,1.83
2022-11-09T03:27:36.516Z,1.45
2022-11-09T03:30:04.895Z,1.40
2022-11-09T03:32:31.953Z,1.15
2022-11-09T03:34:59.544Z,1.45
2022-11-09T03:37:26.593Z,1.55
2022-11-09T03:39:53.736Z,1.02
2022-11-09T03:42:20.698Z,1.00
2022-11-09T03:44:47.600Z,1.23
2022-11-09T03:47:14.543Z,1.05
2022-11-09T03:49:41.438Z,1.60
2022-11-09T03:52:08.400Z,1.10
2022-11-09T03:54:35.295Z,1.10
2022-11-09T03:57:02.206Z,1.30
2022-11-09T03:59:29.234Z,0.82
2022-11-09T04:01:56.160Z,1.42
2022-11-09T04:04:23.173Z,0.80
2022-11-09T04:06:50.058Z,1.67
2022-11-09T04:09:17.095Z,1.15
2022-11-09T04:11:44.046Z,1.27
2022-11-09T04:14:10.939Z,1.25
2022-11-09T04:16:38.409Z,1.10
2022-11-09T04:19:05.325Z,1.38
2022-11-09T04:21:33.475Z,1.15
2022-11-09T04:24:00.450Z,0.90
2022-11-09T04:26:27.390Z,0.90
2022-11-09T04:28:54.351Z,1.38
2022-11-09T04:31:24.263Z,1.02
2022-11-09T04:33:54.903Z,1.27
2022-11-09T04:36:21.990Z,0.93
2022-11-09T04:38:49.228Z,1.05
2022-11-09T04:41:16.484Z,1.98
2022-11-09T04:43:43.456Z,0.88
2022-11-09T04:46:10.366Z,1.10
2022-11-09T04:48:37.338Z,1.70
2022-11-09T04:51:07.516Z,1.23
2022-11-09T04:53:35.358Z,1.42
2022-11-09T04:56:03.061Z,0.90
2022-11-09T04:58:30.445Z,1.25
2022-11-09T05:01:06.266Z,1.10
2022-11-09T05:03:33.694Z,1.00
2022-11-09T05:06:00.638Z,1.15
2022-11-09T05:08:27.628Z,1.33
2022-11-09T05:10:58.067Z,0.80
2022-11-09T05:13:24.961Z,1.08
2022-11-09T05:15:51.874Z,1.20
2022-11-09T05:18:18.774Z,2.03
2022-11-09T05:20:45.689Z,2.05
2022-11-09T05:23:31.369Z,1.30
2022-11-09T05:25:58.315Z,1.05
2022-11-09T05:28:25.186Z,1.20
2022-11-09T05:30:52.058Z,0.80
2022-11-09T05:33:19.391Z,1.20
2022-11-09T05:35:46.485Z,1.33
2022-11-09T05:38:13.472Z,2.15
2022-11-09T05:40:40.311Z,0.80
2022-11-09T05:43:07.175Z,2.15
2022-11-09T05:45:42.718Z,1.83
2022-11-09T05:48:14.783Z,1.45
2022-11-09T05:50:42.885Z,1.48
2022-11-09T05:53:15.392Z,1.52
2022-11-09T05:55:42.659Z,2.22
2022-11-09T05:58:10.314Z,2.33
2022-11-09T06:00:37.612Z,2.55
2022-11-09T06:03:11.380Z,1.10
2022-11-09T06:05:40.555Z,1.88
2022-11-09T06:08:13.867Z,1.30
2022-11-09T06:10:42.331Z,1.83
2022-11-09T06:13:09.989Z,1.15
2022-11-09T06:15:37.015Z,1.13
2022-11-09T06:18:04.084Z,1.40
2022-11-09T06:20:31.424Z,2.30
2022-11-09T06:23:03.507Z,1.27
2022-11-09T06:25:33.490Z,2.22
2022-11-09T06:28:01.146Z,1.10
2022-11-09T06:30:28.144Z,1.77
2022-11-09T06:33:02.338Z,2.33
2022-11-09T06:35:29.887Z,0.88
2022-11-09T06:38:00.902Z,1.73
2022-11-09T06:40:28.643Z,1.15
2022-11-09T06:42:59.977Z,1.27
2022-11-09T06:45:29.481Z,1.45
2022-11-09T06:48:03.050Z,1.98
2022-11-09T06:50:33.446Z,1.75
2022-11-09T06:53:06.073Z,1.83
2022-11-09T06:55:35.378Z,1.23
2022-11-09T06:58:08.585Z,2.13
2022-11-09T07:00:35.989Z,1.65
2022-11-09T07:03:03.786Z,1.48
2022-11-09T07:05:30.729Z,2.80
2022-11-09T07:07:58.432Z,1.52
2022-11-09T07:10:25.711Z,1.33
2022-11-09T07:12:52.595Z,1.70
2022-11-09T07:15:19.563Z,1.20
2022-11-09T07:17:46.475Z,1.48
2022-11-09T07:20:14.852Z,1.13
2022-11-09T07:22:42.391Z,1.70
2022-11-09T07:25:12.272Z,1.80
2022-11-09T07:27:39.152Z,1.63
2022-11-09T07:30:06.850Z,1.48
2022-11-09T07:33:06.965Z,2.58
2022-11-09T07:35:22.266Z,1.30
2022-11-09T07:37:49.264Z,1.75
2022-11-09T07:40:16.201Z,1.65
2022-11-09T07:42:43.097Z,2.05
2022-11-09T07:45:10.412Z,1.65
2022-11-09T07:47:37.391Z,2.45
2022-11-09T07:50:05.761Z,1.45
2022-11-09T07:52:32.742Z,1.58
2022-11-09T07:54:59.688Z,2.30
2022-11-09T07:57:26.586Z,1.20
2022-11-09T07:59:53.695Z,1.25
2022-11-09T08:02:20.704Z,1.13
2022-11-09T08:04:47.593Z,1.08
2022-11-09T08:07:14.886Z,1.67
2022-11-09T08:09:41.821Z,1.23
2022-11-09T08:12:08.707Z,1.55
2022-11-09T08:14:35.609Z,1.15
2022-11-09T08:17:02.483Z,1.23
2022-11-09T08:19:29.338Z,1.80
2022-11-09T08:21:57.791Z,1.17
2022-11-09T08:24:24.763Z,1.52
2022-11-09T08:26:51.644Z,2.20
2022-11-09T08:29:18.594Z,1.60
2022-11-09T08:31:45.619Z,0.80
2022-11-09T08:34:16.253Z,1.60
2022-11-09T08:36:43.340Z,1.25
2022-11-09T08:39:10.361Z,1.00
2022-11-09T08:41:37.365Z,1.70
2022-11-09T08:44:05.344Z,1.40
2022-11-09T08:46:36.996Z,2.20
2022-11-09T08:49:08.321Z,2.00
2022-11-09T08:51:35.233Z,1.35
2022-11-09T08:54:02.755Z,1.23
2022-11-09T08:56:29.896Z,1.42
2022-11-09T08:58:56.757Z,1.30
2022-11-09T09:01:25.327Z,1.73
2022-11-09T09:03:52.296Z,1.55
2022-11-09T09:06:19.225Z,2.65
2022-11-09T09:08:46.411Z,2.63
2022-11-09T09:11:13.303Z,2.22
2022-11-09T09:13:43.299Z,1.95
2022-11-09T09:16:14.564Z,1.50
2022-11-09T09:18:41.696Z,1.33
2022-11-09T09:21:10.272Z,1.80
2022-11-09T09:23:37.343Z,1.17
2022-11-09T09:26:07.067Z,0.98
2022-11-09T09:28:34.779Z,2.33
2022-11-09T09:31:02.255Z,1.75
2022-11-09T09:33:29.198Z,1.35
2022-11-09T09:35:57.775Z,2.38
2022-11-09T09:38:26.280Z,1.92
2022-11-09T09:41:05.452Z,1.95
2022-11-09T09:43:46.725Z,1.50
2022-11-09T09:46:31.374Z,1.38
2022-11-09T09:49:17.412Z,1.25
2022-11-09T09:54:44.032Z,1.73
2022-11-09T09:57:20.790Z,1.40
2022-11-09T09:59:58.187Z,1.83
2022-11-09T10:02:34.717Z,1.75
2022-11-09T10:05:09.517Z,1.65
2022-11-09T10:08:06.451Z,1.03
2022-11-09T10:10:46.325Z,1.67
2022-11-09T10:13:45.268Z,1.88
2022-11-09T10:16:57.588Z,1.50
2022-11-09T10:19:56.216Z,1.98
2022-11-09T10:22:52.232Z,1.13
2022-11-09T10:25:57.822Z,0.98
2022-11-09T10:28:17.265Z,1.80
2022-11-09T10:30:45.141Z,1.20
2022-11-09T10:33:14.437Z,1.45
2022-11-09T10:36:25.232Z,1.65
2022-11-09T10:38:55.077Z,1.20
2022-11-09T10:41:46.358Z,0.90
2022-11-09T10:44:31.992Z,1.50
2022-11-09T10:47:19.444Z,1.00
2022-11-09T10:50:48.852Z,2.03
2022-11-09T10:53:34.816Z,1.60
2022-11-09T10:56:21.968Z,1.42
2022-11-09T10:59:36.064Z,1.20
2022-11-09T11:02:34.290Z,0.90
2022-11-09T11:05:27.431Z,1.20
2022-11-09T11:08:34.049Z,1.10
2022-11-09T11:11:33.645Z,1.10
2022-11-09T11:14:35.144Z,1.13
2022-11-09T11:17:29.535Z,0.93
2022-11-09T11:20:37.977Z,2.08
2022-11-09T11:23:26.204Z,1.23
2022-11-09T11:26:23.766Z,2.15
2022-11-09T11:29:28.578Z,1.23
2022-11-09T11:32:19.487Z,1.35
2022-11-09T11:35:17.705Z,2.53
2022-11-09T11:38:28.073Z,1.10
2022-11-09T11:41:34.782Z,1.20
2022-11-09T11:45:38.945Z,1.15
2022-11-09T11:48:57.292Z,2.25
2022-11-09T11:52:04.052Z,1.02
2022-11-09T11:55:15.163Z,1.05
2022-11-09T11:58:23.674Z,1.15
2022-11-09T12:01:41.833Z,1.00
2022-11-09T12:05:01.667Z,1.50
2022-11-09T12:08:05.270Z,1.52
2022-11-09T12:11:52.450Z,0.90
2022-11-09T12:14:54.923Z,0.98
2022-11-09T12:18:16.063Z,1.55
2022-11-09T12:21:37.463Z,1.08
2022-11-09T12:25:10.131Z,1.13
2022-11-09T12:28:31.290Z,1.30
2022-11-09T12:31:32.945Z,1.15
2022-11-09T12:35:14.847Z,1.05
2022-11-09T12:38:24.763Z,1.00
2022-11-09T12:41:17.696Z,1.42
2022-11-09T12:44:13.203Z,1.75
2022-11-09T12:47:21.680Z,1.02
2022-11-09T12:50:14.893Z,0.80
2022-11-09T12:53:03.647Z,1.75
2022-11-09T12:56:02.112Z,1.75
2022-11-09T12:58:48.275Z,0.77
2022-11-09T13:01:34.269Z,1.35
2022-11-09T13:04:26.038Z,0.80
2022-11-09T13:07:14.483Z,0.70
2022-11-09T13:10:02.619Z,0.95
2022-11-09T13:12:48.476Z,1.80
2022-11-09T13:15:35.562Z,1.27
2022-11-09T13:18:35.839Z,1.98
2022-11-09T13:21:22.002Z,1.13
2022-11-09T13:24:49.889Z,0.50
2022-11-09T13:27:47.254Z,0.90
2022-11-09T13:30:39.972Z,0.45
2022-11-09T13:33:30.580Z,0.90
2022-11-09T13:36:18.119Z,0.93
2022-11-09T13:39:30.169Z,1.20
2022-11-09T13:42:28.215Z,0.70
2022-11-09T13:45:33.445Z,0.45
2022-11-09T13:48:36.708Z,0.70
2022-11-09T13:51:44.653Z,0.60
2022-11-09T13:54:33.975Z,0.98
2022-11-09T13:57:21.373Z,1.42
2022-11-09T14:00:19.092Z,0.35
2022-11-09T14:03:27.937Z,0.60
2022-11-09T14:06:13.766Z,0.90
2022-11-09T14:09:01.340Z,0.70
2022-11-09T14:12:03.337Z,0.57
2022-11-09T14:15:22.238Z,0.75
2022-11-09T14:18:28.997Z,0.60
2022-11-09T14:21:45.538Z,0.80
2022-11-09T14:24:34.075Z,0.50
2022-11-09T14:27:23.691Z,0.90
2022-11-09T14:30:23.103Z,1.10
2022-11-09T14:33:35.672Z,0.93
2022-11-09T14:36:21.413Z,1.75
2022-11-09T14:39:27.696Z,0.73
2022-11-09T14:42:20.521Z,0.80
2022-11-09T14:45:08.052Z,1.95
2022-11-09T14:47:59.805Z,0.95
2022-11-09T14:50:45.643Z,0.85
2022-11-09T14:53:43.006Z,0.80
2022-11-09T14:56:30.634Z,0.60
2022-11-09T14:59:31.295Z,0.93
2022-11-09T15:02:20.405Z,0.60
2022-11-09T15:05:07.890Z,0.88
2022-11-09T15:07:53.674Z,1.40
2022-11-09T15:10:39.520Z,0.73
2022-11-09T15:16:49.951Z,0.60
2022-11-09T15:19:49.494Z,1.05
2022-11-09T15:22:43.001Z,1.00
2022-11-09T15:25:32.086Z,0.85
2022-11-09T15:28:21.332Z,1.17
2022-11-09T15:31:15.985Z,1.55
2022-11-09T15:34:01.759Z,1.05
2022-11-09T15:36:55.034Z,0.80
2022-11-09T15:39:40.468Z,0.75
2022-11-09T15:42:27.414Z,0.90
2022-11-09T15:45:20.552Z,1.00
2022-11-09T15:48:08.269Z,0.70
2022-11-09T15:50:54.807Z,0.93
2022-11-09T15:56:25.368Z,1.15
2022-11-09T15:59:23.947Z,0.80
2022-11-09T16:02:11.886Z,0.90
2022-11-09T16:04:58.144Z,0.80
2022-11-09T16:10:39.671Z,1.80
2022-11-09T16:13:25.247Z,0.80
2022-11-09T16:16:13.785Z,0.80
2022-11-09T16:18:59.676Z,0.98
2022-11-09T16:21:47.170Z,0.98
2022-11-09T16:24:33.673Z,1.20
2022-11-09T16:27:48.526Z,0.90
2022-11-09T16:30:25.590Z,0.70
2022-11-09T16:33:11.073Z,0.90
2022-11-09T16:36:00.690Z,0.82
2022-11-09T16:38:53.342Z,0.80
2022-11-09T16:41:41.935Z,1.20
2022-11-09T16:44:34.227Z,0.98
2022-11-09T16:47:21.123Z,1.85
2022-11-09T16:50:07.559Z,0.80
2022-11-09T16:52:53.157Z,2.40
2022-11-09T16:55:38.667Z,1.03
2022-11-09T16:58:24.564Z,1.55
2022-11-09T17:01:12.763Z,2.85
2022-11-09T17:03:59.425Z,0.85
2022-11-09T17:06:44.806Z,1.08
2022-11-09T17:09:34.111Z,1.17
2022-11-09T17:12:20.015Z,2.10
2022-11-09T17:15:07.053Z,1.98
2022-11-09T17:17:52.787Z,1.15
2022-11-09T17:20:47.519Z,1.48
2022-11-09T17:23:33.929Z,1.00
2022-11-09T17:26:19.972Z,1.25
2022-11-09T17:29:06.264Z,1.10
2022-11-09T17:34:37.663Z,1.75
2022-11-09T17:37:23.950Z,1.73
2022-11-09T17:40:09.984Z,2.03
2022-11-09T17:42:57.017Z,1.27
2022-11-09T17:45:42.849Z,1.08
2022-11-09T17:48:28.364Z,1.55
2022-11-09T17:51:16.903Z,1.17
2022-11-09T17:54:03.889Z,1.20
2022-11-09T17:56:50.063Z,3.83
2022-11-09T18:02:21.684Z,2.03
2022-11-09T18:05:08.335Z,1.83
2022-11-09T18:07:54.114Z,2.63
2022-11-09T18:10:43.781Z,2.13
2022-11-09T18:13:29.492Z,1.02
2022-11-09T18:16:18.965Z,2.42
2022-11-09T18:19:06.053Z,1.00
2022-11-09T18:21:51.447Z,1.23
2022-11-09T18:24:37.014Z,1.98
2022-11-09T18:27:28.957Z,1.80
2022-11-09T18:30:17.056Z,1.20
2022-11-09T18:33:02.287Z,1.27
2022-11-09T18:36:00.431Z,1.40
2022-11-09T18:38:47.175Z,1.25
2022-11-09T18:41:33.580Z,0.98
2022-11-09T18:44:19.083Z,1.65
2022-11-09T18:47:08.532Z,2.17
2022-11-09T18:49:54.225Z,1.45
2022-11-09T18:52:39.891Z,1.33
2022-11-09T18:55:25.559Z,1.08
2022-11-09T18:58:11.359Z,1.20
2022-11-09T19:01:00.083Z,2.08
2022-11-09T19:03:46.078Z,1.55
2022-11-09T19:06:32.082Z,2.75
2022-11-09T19:09:31.473Z,1.65
2022-11-09T19:12:17.269Z,2.55
2022-11-09T19:15:03.250Z,1.83
2022-11-09T19:17:49.979Z,2.15
2022-11-09T19:20:39.055Z,1.65
2022-11-09T19:23:32.776Z,2.00
2022-11-09T19:26:21.470Z,1.80
2022-11-09T19:29:07.947Z,2.40
2022-11-09T19:31:53.361Z,2.17
2022-11-09T19:34:38.897Z,1.30
2022-11-09T19:37:24.677Z,2.88
2022-11-09T19:40:10.828Z,1.40
2022-11-09T19:42:56.916Z,1.23
2022-11-09T19:45:42.992Z,1.10
2022-11-09T19:48:28.641Z,1.67
2022-11-09T19:51:16.278Z,1.35
2022-11-09T19:54:04.105Z,2.35
2022-11-09T19:56:49.693Z,1.58
2022-11-09T19:59:35.705Z,1.75
2022-11-09T20:02:21.269Z,2.22
2022-11-09T20:05:08.421Z,1.45
2022-11-09T20:07:54.001Z,1.65
2022-11-09T20:10:39.329Z,1.75
2022-11-09T20:13:24.724Z,2.72
2022-11-09T20:16:10.687Z,1.63
2022-11-09T20:21:42.617Z,2.00
2022-11-09T20:24:28.159Z,3.28
2022-11-09T20:27:14.628Z,1.85
2022-11-09T20:30:01.903Z,1.92
2022-11-09T20:32:47.751Z,1.60
2022-11-09T20:35:34.107Z,1.65
2022-11-09T20:38:20.217Z,2.03
2022-11-09T20:41:08.244Z,1.35
2022-11-09T20:43:54.214Z,1.77
2022-11-09T20:46:39.833Z,1.60
2022-11-09T20:49:26.661Z,1.73
2022-11-09T20:52:12.341Z,1.80
2022-11-09T20:54:57.787Z,2.15
2022-11-09T20:57:43.353Z,1.90
2022-11-09T21:00:29.349Z,1.35
2022-11-09T21:03:14.693Z,1.98
2022-11-09T21:06:03.345Z,1.40
2022-11-09T21:08:55.839Z,2.97
2022-11-09T21:12:00.460Z,1.65
2022-11-09T21:14:45.786Z,2.10
2022-11-09T21:17:31.366Z,2.00
2022-11-09T21:20:17.442Z,1.70
2022-11-09T21:26:18.631Z,2.90
2022-11-09T21:29:23.567Z,1.58
2022-11-09T21:32:11.498Z,3.55
2022-11-09T21:34:57.126Z,1.88
2022-11-09T21:37:42.618Z,1.58
2022-11-09T21:40:28.653Z,2.13
2022-11-09T21:43:15.013Z,4.28
2022-11-09T21:46:00.366Z,3.05
2022-11-09T21:48:45.953Z,2.17
2022-11-09T21:51:33.754Z,2.80
2022-11-09T21:54:19.972Z,2.08
2022-11-09T21:59:51.011Z,1.75
2022-11-09T22:02:36.500Z,3.20
2022-11-09T22:05:23.246Z,2.63
2022-11-09T22:08:09.247Z,2.20
2022-11-09T22:11:10.215Z,3.25
2022-11-09T22:14:14.322Z,2.72
2022-11-09T22:17:00.124Z,2.65
2022-11-09T22:20:04.349Z,3.60
2022-11-09T22:22:50.475Z,2.58
2022-11-09T22:25:35.807Z,2.10
2022-11-09T22:28:21.551Z,2.90
2022-11-09T22:31:09.282Z,2.53
2022-11-09T22:33:54.812Z,3.10
2022-11-09T22:36:40.481Z,2.42
2022-11-09T22:39:26.041Z,2.95
2022-11-09T22:42:11.757Z,2.75
2022-11-09T22:44:57.465Z,3.53
2022-11-09T22:47:43.217Z,2.22
2022-11-09T22:50:28.995Z,2.50
2022-11-09T22:53:14.822Z,2.67
2022-11-09T22:56:02.362Z,4.10
2022-11-09T22:58:48.054Z,3.38
2022-11-09T23:01:33.990Z,2.83
2022-11-09T23:04:19.495Z,2.75
2022-11-09T23:07:05.212Z,3.08
2022-11-09T23:09:50.473Z,4.83
2022-11-09T23:12:36.588Z,2.70
2022-11-09T23:18:28.029Z,3.30
2022-11-09T23:21:14.911Z,3.63
2022-11-09T23:24:04.117Z,3.13
2022-11-09T23:26:49.923Z,3.25
2022-11-09T23:29:35.425Z,2.95
2022-11-09T23:32:21.025Z,2.92
2022-11-09T23:35:07.628Z,3.60
2022-11-09T23:38:04.887Z,4.93
2022-11-09T23:40:50.523Z,3.70
2022-11-09T23:43:37.287Z,4.03
2022-11-09T23:46:23.037Z,3.67
2022-11-09T23:49:08.373Z,5.50
2022-11-09T23:51:54.167Z,6.00
2022-11-09T23:54:39.642Z,3.65
2022-11-09T23:57:25.498Z,4.13
